sensor_id;sensor_type;location;lat;lon;timestamp;P1;durP1;ratioP1;P2;durP2;ratioP2
20124;SDS011;10223;50.862;4.360;2022-11-04T00:01:31;5.30;;;1.40;;
20124;SDS011;10223;50.862;4.360;2022-11-04T00:03:59;7.03;;;1.37;;
20124;SDS011;10223;50.862;4.360;2022-11-04T00:06:26;3.20;;;1.33;;
20124;SDS011;10223;50.862;4.360;2022-11-04T00:08:53;9.30;;;2.10;;
20124;SDS011;10223;50.862;4.360;2022-11-04T00:11:21;6.57;;;1.60;;
20124;SDS011;10223;50.862;4.360;2022-11-04T00:14:07;8.63;;;1.90;;
20124;SDS011;10223;50.862;4.360;2022-11-04T00:16:35;9.47;;;1.57;;
20124;SDS011;10223;50.862;4.360;2022-11-04T00:19:21;6.43;;;1.57;;
20124;SDS011;10223;50.862;4.360;2022-11-04T00:21:48;8.47;;;1.47;;
20124;SDS011;10223;50.862;4.360;2022-11-04T00:24:32;11.37;;;1.60;;
20124;SDS011;10223;50.862;4.360;2022-11-04T00:27:17;4.00;;;1.30;;
20124;SDS011;10223;50.862;4.360;2022-11-04T00:30:04;8.60;;;2.00;;
20124;SDS011;10223;50.862;4.360;2022-11-04T00:32:33;7.83;;;2.53;;
20124;SDS011;10223;50.862;4.360;2022-11-04T00:35:19;6.80;;;1.67;;
20124;SDS011;10223;50.862;4.360;2022-11-04T00:37:47;7.73;;;1.63;;
20124;SDS011;10223;50.862;4.360;2022-11-04T00:40:14;8.97;;;2.37;;
20124;SDS011;10223;50.862;4.360;2022-11-04T00:42:42;8.07;;;1.73;;
20124;SDS011;10223;50.862;4.360;2022-11-04T00:45:10;3.20;;;1.27;;
20124;SDS011;10223;50.862;4.360;2022-11-04T00:47:36;9.53;;;1.60;;
20124;SDS011;10223;50.862;4.360;2022-11-04T00:50:04;8.73;;;1.73;;
20124;SDS011;10223;50.862;4.360;2022-11-04T00:52:33;11.10;;;2.27;;
20124;SDS011;10223;50.862;4.360;2022-11-04T00:55:00;9.30;;;2.13;;
20124;SDS011;10223;50.862;4.360;2022-11-04T00:57:29;7.27;;;1.67;;
20124;SDS011;10223;50.862;4.360;2022-11-04T00:59:56;7.70;;;1.57;;
20124;SDS011;10223;50.862;4.360;2022-11-04T01:02:23;9.20;;;2.03;;
20124;SDS011;10223;50.862;4.360;2022-11-04T01:04:51;10.00;;;1.57;;
20124;SDS011;10223;50.862;4.360;2022-11-04T01:07:18;7.60;;;1.60;;
20124;SDS011;10223;50.862;4.360;2022-11-04T01:09:46;8.70;;;1.90;;
20124;SDS011;10223;50.862;4.360;2022-11-04T01:12:14;14.03;;;1.80;;
20124;SDS011;10223;50.862;4.360;2022-11-04T01:14:41;5.40;;;1.63;;
20124;SDS011;10223;50.862;4.360;2022-11-04T01:17:08;7.27;;;2.00;;
20124;SDS011;10223;50.862;4.360;2022-11-04T01:19:34;7.37;;;1.43;;
20124;SDS011;10223;50.862;4.360;2022-11-04T01:22:01;13.43;;;2.00;;
20124;SDS011;10223;50.862;4.360;2022-11-04T01:24:29;6.27;;;1.47;;
20124;SDS011;10223;50.862;4.360;2022-11-04T01:26:57;7.47;;;2.20;;
20124;SDS011;10223;50.862;4.360;2022-11-04T01:29:24;6.33;;;1.50;;
20124;SDS011;10223;50.862;4.360;2022-11-04T01:31:51;9.50;;;2.10;;
20124;SDS011;10223;50.862;4.360;2022-11-04T01:34:17;6.73;;;1.73;;
20124;SDS011;10223;50.862;4.360;2022-11-04T01:36:45;6.97;;;1.73;;
20124;SDS011;10223;50.862;4.360;2022-11-04T01:39:12;5.60;;;1.53;;
20124;SDS011;10223;50.862;4.360;2022-11-04T01:41:39;8.47;;;2.10;;
20124;SDS011;10223;50.862;4.360;2022-11-04T01:47:08;9.23;;;1.87;;
20124;SDS011;10223;50.862;4.360;2022-11-04T01:49:41;10.23;;;1.67;;
20124;SDS011;10223;50.862;4.360;2022-11-04T01:52:11;10.30;;;1.70;;
20124;SDS011;10223;50.862;4.360;2022-11-04T01:54:41;6.40;;;1.67;;
20124;SDS011;10223;50.862;4.360;2022-11-04T01:57:13;10.47;;;1.63;;
20124;SDS011;10223;50.862;4.360;2022-11-04T01:59:44;8.57;;;2.10;;
20124;SDS011;10223;50.862;4.360;2022-11-04T02:02:13;12.10;;;2.40;;
20124;SDS011;10223;50.862;4.360;2022-11-04T02:04:40;8.77;;;1.50;;
20124;SDS011;10223;50.862;4.360;2022-11-04T02:07:09;9.53;;;1.97;;
20124;SDS011;10223;50.862;4.360;2022-11-04T02:09:37;15.23;;;2.40;;
20124;SDS011;10223;50.862;4.360;2022-11-04T02:12:05;10.47;;;1.77;;
20124;SDS011;10223;50.862;4.360;2022-11-04T02:14:50;6.60;;;1.43;;
20124;SDS011;10223;50.862;4.360;2022-11-04T02:17:25;6.30;;;1.77;;
20124;SDS011;10223;50.862;4.360;2022-11-04T02:20:12;6.50;;;1.90;;
20124;SDS011;10223;50.862;4.360;2022-11-04T02:22:51;6.83;;;1.83;;
20124;SDS011;10223;50.862;4.360;2022-11-04T02:25:45;7.03;;;1.90;;
20124;SDS011;10223;50.862;4.360;2022-11-04T02:28:36;7.97;;;2.47;;
20124;SDS011;10223;50.862;4.360;2022-11-04T02:31:23;8.07;;;2.17;;
20124;SDS011;10223;50.862;4.360;2022-11-04T02:33:58;12.33;;;2.27;;
20124;SDS011;10223;50.862;4.360;2022-11-04T02:36:32;9.17;;;2.13;;
20124;SDS011;10223;50.862;4.360;2022-11-04T02:39:06;6.97;;;2.17;;
20124;SDS011;10223;50.862;4.360;2022-11-04T02:41:41;9.70;;;2.43;;
20124;SDS011;10223;50.862;4.360;2022-11-04T02:44:14;7.23;;;2.00;;
20124;SDS011;10223;50.862;4.360;2022-11-04T02:46:47;7.93;;;2.63;;
20124;SDS011;10223;50.862;4.360;2022-11-04T02:49:17;15.57;;;2.50;;
20124;SDS011;10223;50.862;4.360;2022-11-04T02:51:49;9.07;;;3.87;;
20124;SDS011;10223;50.862;4.360;2022-11-04T02:54:22;10.00;;;2.57;;
20124;SDS011;10223;50.862;4.360;2022-11-04T02:56:52;8.03;;;2.40;;
20124;SDS011;10223;50.862;4.360;2022-11-04T02:59:23;6.13;;;2.47;;
20124;SDS011;10223;50.862;4.360;2022-11-04T03:01:56;12.63;;;2.40;;
20124;SDS011;10223;50.862;4.360;2022-11-04T03:04:26;8.00;;;2.80;;
20124;SDS011;10223;50.862;4.360;2022-11-04T03:06:56;10.90;;;2.43;;
20124;SDS011;10223;50.862;4.360;2022-11-04T03:09:26;8.00;;;2.60;;
20124;SDS011;10223;50.862;4.360;2022-11-04T03:11:55;7.77;;;2.30;;
20124;SDS011;10223;50.862;4.360;2022-11-04T03:14:27;9.10;;;2.70;;
20124;SDS011;10223;50.862;4.360;2022-11-04T03:17:01;14.50;;;2.83;;
20124;SDS011;10223;50.862;4.360;2022-11-04T03:19:35;8.90;;;2.80;;
20124;SDS011;10223;50.862;4.360;2022-11-04T03:22:10;8.97;;;3.17;;
20124;SDS011;10223;50.862;4.360;2022-11-04T03:24:40;13.33;;;2.93;;
20124;SDS011;10223;50.862;4.360;2022-11-04T03:27:11;9.67;;;2.70;;
20124;SDS011;10223;50.862;4.360;2022-11-04T03:29:45;8.57;;;2.50;;
20124;SDS011;10223;50.862;4.360;2022-11-04T03:32:22;11.90;;;2.80;;
20124;SDS011;10223;50.862;4.360;2022-11-04T03:34:53;10.47;;;2.53;;
20124;SDS011;10223;50.862;4.360;2022-11-04T03:37:21;9.63;;;2.70;;
20124;SDS011;10223;50.862;4.360;2022-11-04T03:39:48;10.77;;;2.40;;
20124;SDS011;10223;50.862;4.360;2022-11-04T03:42:14;15.87;;;2.53;;
20124;SDS011;10223;50.862;4.360;2022-11-04T03:44:46;12.03;;;3.03;;
20124;SDS011;10223;50.862;4.360;2022-11-04T03:47:14;7.17;;;2.83;;
20124;SDS011;10223;50.862;4.360;2022-11-04T03:52:12;11.30;;;2.40;;
20124;SDS011;10223;50.862;4.360;2022-11-04T03:54:40;11.33;;;2.83;;
20124;SDS011;10223;50.862;4.360;2022-11-04T03:57:12;7.53;;;2.30;;
20124;SDS011;10223;50.862;4.360;2022-11-04T04:00:06;11.60;;;2.30;;
20124;SDS011;10223;50.862;4.360;2022-11-04T04:02:45;10.13;;;2.50;;
20124;SDS011;10223;50.862;4.360;2022-11-04T04:05:22;9.23;;;2.53;;
20124;SDS011;10223;50.862;4.360;2022-11-04T04:07:55;7.20;;;2.63;;
20124;SDS011;10223;50.862;4.360;2022-11-04T04:10:34;7.20;;;2.27;;
20124;SDS011;10223;50.862;4.360;2022-11-04T04:13:07;13.17;;;2.50;;
20124;SDS011;10223;50.862;4.360;2022-11-04T04:15:43;7.20;;;2.47;;
20124;SDS011;10223;50.862;4.360;2022-11-04T04:18:15;8.07;;;2.13;;
20124;SDS011;10223;50.862;4.360;2022-11-04T04:20:50;10.50;;;2.30;;
20124;SDS011;10223;50.862;4.360;2022-11-04T04:23:20;9.33;;;2.80;;
20124;SDS011;10223;50.862;4.360;2022-11-04T04:26:08;11.10;;;2.53;;
20124;SDS011;10223;50.862;4.360;2022-11-04T04:28:55;4.63;;;2.10;;
20124;SDS011;10223;50.862;4.360;2022-11-04T04:31:25;10.10;;;2.47;;
20124;SDS011;10223;50.862;4.360;2022-11-04T04:34:11;16.17;;;3.00;;
20124;SDS011;10223;50.862;4.360;2022-11-04T04:36:40;8.77;;;2.10;;
20124;SDS011;10223;50.862;4.360;2022-11-04T04:39:11;7.87;;;2.20;;
20124;SDS011;10223;50.862;4.360;2022-11-04T04:41:59;12.87;;;2.30;;
20124;SDS011;10223;50.862;4.360;2022-11-04T04:44:43;10.97;;;2.70;;
20124;SDS011;10223;50.862;4.360;2022-11-04T04:47:25;12.23;;;2.50;;
20124;SDS011;10223;50.862;4.360;2022-11-04T04:49:56;11.10;;;2.70;;
20124;SDS011;10223;50.862;4.360;2022-11-04T04:52:26;11.93;;;2.30;;
20124;SDS011;10223;50.862;4.360;2022-11-04T04:54:55;6.63;;;2.30;;
20124;SDS011;10223;50.862;4.360;2022-11-04T04:57:22;9.73;;;2.03;;
20124;SDS011;10223;50.862;4.360;2022-11-04T04:59:49;9.57;;;2.20;;
20124;SDS011;10223;50.862;4.360;2022-11-04T05:02:15;14.57;;;2.97;;
20124;SDS011;10223;50.862;4.360;2022-11-04T05:04:42;8.53;;;2.20;;
20124;SDS011;10223;50.862;4.360;2022-11-04T05:07:09;8.83;;;1.87;;
20124;SDS011;10223;50.862;4.360;2022-11-04T05:09:37;11.77;;;2.33;;
20124;SDS011;10223;50.862;4.360;2022-11-04T05:12:04;11.57;;;3.20;;
20124;SDS011;10223;50.862;4.360;2022-11-04T05:14:31;12.70;;;2.60;;
20124;SDS011;10223;50.862;4.360;2022-11-04T05:16:59;14.60;;;2.57;;
20124;SDS011;10223;50.862;4.360;2022-11-04T05:19:25;13.10;;;2.30;;
20124;SDS011;10223;50.862;4.360;2022-11-04T05:21:52;10.20;;;2.13;;
20124;SDS011;10223;50.862;4.360;2022-11-04T05:24:19;8.63;;;2.07;;
20124;SDS011;10223;50.862;4.360;2022-11-04T05:26:47;12.10;;;2.10;;
20124;SDS011;10223;50.862;4.360;2022-11-04T05:29:14;8.73;;;1.67;;
20124;SDS011;10223;50.862;4.360;2022-11-04T05:31:41;7.47;;;1.90;;
20124;SDS011;10223;50.862;4.360;2022-11-04T05:34:09;10.83;;;2.10;;
20124;SDS011;10223;50.862;4.360;2022-11-04T05:36:36;16.87;;;2.30;;
20124;SDS011;10223;50.862;4.360;2022-11-04T05:39:03;9.37;;;2.40;;
20124;SDS011;10223;50.862;4.360;2022-11-04T05:41:30;11.43;;;2.07;;
20124;SDS011;10223;50.862;4.360;2022-11-04T05:43:59;12.97;;;2.53;;
20124;SDS011;10223;50.862;4.360;2022-11-04T05:46:27;13.83;;;2.67;;
20124;SDS011;10223;50.862;4.360;2022-11-04T05:48:55;10.10;;;3.00;;
20124;SDS011;10223;50.862;4.360;2022-11-04T05:51:23;12.37;;;2.43;;
20124;SDS011;10223;50.862;4.360;2022-11-04T05:53:51;12.73;;;2.27;;
20124;SDS011;10223;50.862;4.360;2022-11-04T05:56:19;10.40;;;2.57;;
20124;SDS011;10223;50.862;4.360;2022-11-04T05:58:46;9.17;;;2.37;;
20124;SDS011;10223;50.862;4.360;2022-11-04T06:01:22;9.10;;;2.27;;
20124;SDS011;10223;50.862;4.360;2022-11-04T06:03:54;10.77;;;2.47;;
20124;SDS011;10223;50.862;4.360;2022-11-04T06:06:22;8.93;;;2.63;;
20124;SDS011;10223;50.862;4.360;2022-11-04T06:08:50;11.20;;;2.40;;
20124;SDS011;10223;50.862;4.360;2022-11-04T06:11:18;11.43;;;2.60;;
20124;SDS011;10223;50.862;4.360;2022-11-04T06:13:46;11.77;;;2.80;;
20124;SDS011;10223;50.862;4.360;2022-11-04T06:16:15;7.07;;;2.27;;
20124;SDS011;10223;50.862;4.360;2022-11-04T06:18:42;11.07;;;2.37;;
20124;SDS011;10223;50.862;4.360;2022-11-04T06:21:19;11.70;;;2.50;;
20124;SDS011;10223;50.862;4.360;2022-11-04T06:23:50;13.63;;;2.40;;
20124;SDS011;10223;50.862;4.360;2022-11-04T06:26:18;8.63;;;2.40;;
20124;SDS011;10223;50.862;4.360;2022-11-04T06:28:46;14.37;;;2.23;;
20124;SDS011;10223;50.862;4.360;2022-11-04T06:31:12;10.93;;;2.23;;
20124;SDS011;10223;50.862;4.360;2022-11-04T06:33:42;9.23;;;2.50;;
20124;SDS011;10223;50.862;4.360;2022-11-04T06:36:10;15.60;;;2.70;;
20124;SDS011;10223;50.862;4.360;2022-11-04T06:38:38;15.40;;;2.73;;
20124;SDS011;10223;50.862;4.360;2022-11-04T06:41:06;11.40;;;2.33;;
20124;SDS011;10223;50.862;4.360;2022-11-04T06:43:35;12.03;;;2.47;;
20124;SDS011;10223;50.862;4.360;2022-11-04T06:46:02;8.93;;;2.60;;
20124;SDS011;10223;50.862;4.360;2022-11-04T06:48:30;10.63;;;2.60;;
20124;SDS011;10223;50.862;4.360;2022-11-04T06:50:57;6.87;;;1.87;;
20124;SDS011;10223;50.862;4.360;2022-11-04T06:53:25;8.00;;;2.23;;
20124;SDS011;10223;50.862;4.360;2022-11-04T06:55:53;14.13;;;2.67;;
20124;SDS011;10223;50.862;4.360;2022-11-04T06:58:26;10.10;;;2.17;;
20124;SDS011;10223;50.862;4.360;2022-11-04T07:00:53;10.20;;;2.50;;
20124;SDS011;10223;50.862;4.360;2022-11-04T07:03:20;12.33;;;2.50;;
20124;SDS011;10223;50.862;4.360;2022-11-04T07:05:48;8.83;;;2.07;;
20124;SDS011;10223;50.862;4.360;2022-11-04T07:08:15;9.03;;;3.30;;
20124;SDS011;10223;50.862;4.360;2022-11-04T07:10:42;10.40;;;2.80;;
20124;SDS011;10223;50.862;4.360;2022-11-04T07:13:09;8.33;;;2.23;;
20124;SDS011;10223;50.862;4.360;2022-11-04T07:15:36;9.70;;;2.33;;
20124;SDS011;10223;50.862;4.360;2022-11-04T07:18:04;9.63;;;2.63;;
20124;SDS011;10223;50.862;4.360;2022-11-04T07:20:31;13.33;;;2.83;;
20124;SDS011;10223;50.862;4.360;2022-11-04T07:23:00;13.67;;;2.77;;
20124;SDS011;10223;50.862;4.360;2022-11-04T07:25:27;17.30;;;2.73;;
20124;SDS011;10223;50.862;4.360;2022-11-04T07:27:54;14.23;;;2.47;;
20124;SDS011;10223;50.862;4.360;2022-11-04T07:30:20;7.80;;;2.37;;
20124;SDS011;10223;50.862;4.360;2022-11-04T07:32:47;7.93;;;2.20;;
20124;SDS011;10223;50.862;4.360;2022-11-04T07:35:14;10.20;;;3.63;;
20124;SDS011;10223;50.862;4.360;2022-11-04T07:37:41;11.47;;;2.97;;
20124;SDS011;10223;50.862;4.360;2022-11-04T07:40:10;7.30;;;2.70;;
20124;SDS011;10223;50.862;4.360;2022-11-04T07:42:37;9.97;;;2.63;;
20124;SDS011;10223;50.862;4.360;2022-11-04T07:45:05;10.23;;;2.23;;
20124;SDS011;10223;50.862;4.360;2022-11-04T07:47:32;8.07;;;2.83;;
20124;SDS011;10223;50.862;4.360;2022-11-04T07:49:59;10.47;;;2.30;;
20124;SDS011;10223;50.862;4.360;2022-11-04T07:52:26;12.13;;;2.60;;
20124;SDS011;10223;50.862;4.360;2022-11-04T07:54:53;13.90;;;3.80;;
20124;SDS011;10223;50.862;4.360;2022-11-04T07:57:21;12.50;;;2.83;;
20124;SDS011;10223;50.862;4.360;2022-11-04T07:59:48;12.50;;;2.40;;
20124;SDS011;10223;50.862;4.360;2022-11-04T08:02:15;13.67;;;2.93;;
20124;SDS011;10223;50.862;4.360;2022-11-04T08:04:42;10.90;;;2.00;;
20124;SDS011;10223;50.862;4.360;2022-11-04T08:07:09;9.67;;;2.93;;
20124;SDS011;10223;50.862;4.360;2022-11-04T08:09:36;14.93;;;2.50;;
20124;SDS011;10223;50.862;4.360;2022-11-04T08:12:03;11.17;;;3.10;;
20124;SDS011;10223;50.862;4.360;2022-11-04T08:14:32;13.03;;;2.93;;
20124;SDS011;10223;50.862;4.360;2022-11-04T08:16:59;15.17;;;3.50;;
20124;SDS011;10223;50.862;4.360;2022-11-04T08:19:26;13.97;;;3.10;;
20124;SDS011;10223;50.862;4.360;2022-11-04T08:21:52;13.10;;;2.73;;
20124;SDS011;10223;50.862;4.360;2022-11-04T08:24:19;17.93;;;2.40;;
20124;SDS011;10223;50.862;4.360;2022-11-04T08:26:46;16.73;;;2.97;;
20124;SDS011;10223;50.862;4.360;2022-11-04T08:29:13;12.47;;;2.63;;
20124;SDS011;10223;50.862;4.360;2022-11-04T08:31:41;10.83;;;2.30;;
20124;SDS011;10223;50.862;4.360;2022-11-04T08:34:08;9.57;;;2.73;;
20124;SDS011;10223;50.862;4.360;2022-11-04T08:36:37;12.90;;;3.00;;
20124;SDS011;10223;50.862;4.360;2022-11-04T08:39:06;16.60;;;2.87;;
20124;SDS011;10223;50.862;4.360;2022-11-04T08:41:35;10.53;;;2.87;;
20124;SDS011;10223;50.862;4.360;2022-11-04T08:44:05;9.83;;;2.60;;
20124;SDS011;10223;50.862;4.360;2022-11-04T08:46:33;17.07;;;3.20;;
20124;SDS011;10223;50.862;4.360;2022-11-04T08:49:03;15.43;;;2.73;;
20124;SDS011;10223;50.862;4.360;2022-11-04T08:51:30;15.63;;;3.30;;
20124;SDS011;10223;50.862;4.360;2022-11-04T08:53:59;20.73;;;4.07;;
20124;SDS011;10223;50.862;4.360;2022-11-04T08:56:26;12.00;;;2.70;;
20124;SDS011;10223;50.862;4.360;2022-11-04T08:58:55;12.47;;;3.10;;
20124;SDS011;10223;50.862;4.360;2022-11-04T09:01:23;12.67;;;2.80;;
20124;SDS011;10223;50.862;4.360;2022-11-04T09:03:51;13.10;;;2.77;;
20124;SDS011;10223;50.862;4.360;2022-11-04T09:06:21;12.67;;;3.23;;
20124;SDS011;10223;50.862;4.360;2022-11-04T09:08:49;9.13;;;3.07;;
20124;SDS011;10223;50.862;4.360;2022-11-04T09:11:19;8.30;;;3.13;;
20124;SDS011;10223;50.862;4.360;2022-11-04T09:13:46;12.40;;;2.90;;
20124;SDS011;10223;50.862;4.360;2022-11-04T09:16:13;7.57;;;2.30;;
20124;SDS011;10223;50.862;4.360;2022-11-04T09:18:41;9.90;;;2.70;;
20124;SDS011;10223;50.862;4.360;2022-11-04T09:21:08;7.43;;;2.50;;
20124;SDS011;10223;50.862;4.360;2022-11-04T09:23:37;9.33;;;2.90;;
20124;SDS011;10223;50.862;4.360;2022-11-04T09:26:06;9.47;;;2.67;;
20124;SDS011;10223;50.862;4.360;2022-11-04T09:28:34;11.00;;;3.40;;
20124;SDS011;10223;50.862;4.360;2022-11-04T09:31:05;11.87;;;2.80;;
20124;SDS011;10223;50.862;4.360;2022-11-04T09:33:33;11.40;;;3.07;;
20124;SDS011;10223;50.862;4.360;2022-11-04T09:36:00;9.63;;;3.57;;
20124;SDS011;10223;50.862;4.360;2022-11-04T09:38:27;13.13;;;4.13;;
20124;SDS011;10223;50.862;4.360;2022-11-04T09:40:55;14.27;;;3.17;;
20124;SDS011;10223;50.862;4.360;2022-11-04T09:43:31;16.13;;;3.90;;
20124;SDS011;10223;50.862;4.360;2022-11-04T09:46:07;11.93;;;3.50;;
20124;SDS011;10223;50.862;4.360;2022-11-04T09:48:37;14.83;;;3.67;;
20124;SDS011;10223;50.862;4.360;2022-11-04T09:51:07;11.63;;;3.23;;
20124;SDS011;10223;50.862;4.360;2022-11-04T09:53:36;11.90;;;3.13;;
20124;SDS011;10223;50.862;4.360;2022-11-04T09:56:12;11.20;;;3.57;;
20124;SDS011;10223;50.862;4.360;2022-11-04T09:58:42;11.30;;;3.37;;
20124;SDS011;10223;50.862;4.360;2022-11-04T10:01:13;10.70;;;3.63;;
20124;SDS011;10223;50.862;4.360;2022-11-04T10:03:52;17.47;;;3.37;;
20124;SDS011;10223;50.862;4.360;2022-11-04T10:06:34;13.57;;;5.10;;
20124;SDS011;10223;50.862;4.360;2022-11-04T10:09:11;9.90;;;3.37;;
20124;SDS011;10223;50.862;4.360;2022-11-04T10:11:55;10.23;;;3.70;;
20124;SDS011;10223;50.862;4.360;2022-11-04T10:14:35;16.37;;;3.83;;
20124;SDS011;10223;50.862;4.360;2022-11-04T10:17:17;10.40;;;3.13;;
20124;SDS011;10223;50.862;4.360;2022-11-04T10:19:58;15.07;;;4.27;;
20124;SDS011;10223;50.862;4.360;2022-11-04T10:22:42;12.60;;;3.20;;
20124;SDS011;10223;50.862;4.360;2022-11-04T10:25:21;16.57;;;3.17;;
20124;SDS011;10223;50.862;4.360;2022-11-04T10:27:51;14.37;;;5.00;;
20124;SDS011;10223;50.862;4.360;2022-11-04T10:30:19;12.07;;;3.73;;
20124;SDS011;10223;50.862;4.360;2022-11-04T10:32:56;13.80;;;3.50;;
20124;SDS011;10223;50.862;4.360;2022-11-04T10:35:30;15.57;;;3.93;;
20124;SDS011;10223;50.862;4.360;2022-11-04T10:38:11;11.20;;;3.67;;
20124;SDS011;10223;50.862;4.360;2022-11-04T10:40:45;10.03;;;3.20;;
20124;SDS011;10223;50.862;4.360;2022-11-04T10:43:16;14.27;;;3.80;;
20124;SDS011;10223;50.862;4.360;2022-11-04T10:45:51;13.07;;;4.30;;
20124;SDS011;10223;50.862;4.360;2022-11-04T10:48:27;9.23;;;4.00;;
20124;SDS011;10223;50.862;4.360;2022-11-04T10:51:01;17.83;;;4.27;;
20124;SDS011;10223;50.862;4.360;2022-11-04T10:53:28;12.90;;;3.80;;
20124;SDS011;10223;50.862;4.360;2022-11-04T10:55:58;13.23;;;3.57;;
20124;SDS011;10223;50.862;4.360;2022-11-04T10:58:34;11.07;;;3.37;;
20124;SDS011;10223;50.862;4.360;2022-11-04T11:01:23;16.47;;;4.30;;
20124;SDS011;10223;50.862;4.360;2022-11-04T11:03:52;14.57;;;5.60;;
20124;SDS011;10223;50.862;4.360;2022-11-04T11:06:23;14.23;;;6.43;;
20124;SDS011;10223;50.862;4.360;2022-11-04T11:08:53;14.57;;;7.20;;
20124;SDS011;10223;50.862;4.360;2022-11-04T11:11:39;17.90;;;7.40;;
20124;SDS011;10223;50.862;4.360;2022-11-04T11:14:17;18.33;;;8.17;;
20124;SDS011;10223;50.862;4.360;2022-11-04T11:16:56;18.03;;;7.13;;
20124;SDS011;10223;50.862;4.360;2022-11-04T11:19:43;15.00;;;6.53;;
20124;SDS011;10223;50.862;4.360;2022-11-04T11:22:26;14.93;;;6.77;;
20124;SDS011;10223;50.862;4.360;2022-11-04T11:25:11;14.80;;;6.10;;
20124;SDS011;10223;50.862;4.360;2022-11-04T11:27:40;14.37;;;5.87;;
20124;SDS011;10223;50.862;4.360;2022-11-04T11:30:21;16.67;;;6.97;;
20124;SDS011;10223;50.862;4.360;2022-11-04T11:32:51;11.07;;;5.50;;
20124;SDS011;10223;50.862;4.360;2022-11-04T11:35:21;13.50;;;5.80;;
20124;SDS011;10223;50.862;4.360;2022-11-04T11:37:52;16.27;;;6.50;;
20124;SDS011;10223;50.862;4.360;2022-11-04T11:40:23;17.00;;;6.10;;
20124;SDS011;10223;50.862;4.360;2022-11-04T11:42:52;19.90;;;6.43;;
20124;SDS011;10223;50.862;4.360;2022-11-04T11:45:21;14.87;;;6.13;;
20124;SDS011;10223;50.862;4.360;2022-11-04T11:47:50;18.03;;;6.07;;
20124;SDS011;10223;50.862;4.360;2022-11-04T11:50:19;12.47;;;5.30;;
20124;SDS011;10223;50.862;4.360;2022-11-04T11:52:50;10.97;;;5.53;;
20124;SDS011;10223;50.862;4.360;2022-11-04T11:55:19;13.67;;;5.13;;
20124;SDS011;10223;50.862;4.360;2022-11-04T11:57:55;11.80;;;4.97;;
20124;SDS011;10223;50.862;4.360;2022-11-04T12:00:30;12.27;;;4.83;;
20124;SDS011;10223;50.862;4.360;2022-11-04T12:03:04;15.77;;;5.10;;
20124;SDS011;10223;50.862;4.360;2022-11-04T12:05:41;12.47;;;5.27;;
20124;SDS011;10223;50.862;4.360;2022-11-04T12:08:17;12.43;;;5.60;;
20124;SDS011;10223;50.862;4.360;2022-11-04T12:11:06;14.20;;;4.90;;
20124;SDS011;10223;50.862;4.360;2022-11-04T12:13:38;11.83;;;5.17;;
20124;SDS011;10223;50.862;4.360;2022-11-04T12:16:14;13.50;;;5.03;;
20124;SDS011;10223;50.862;4.360;2022-11-04T12:18:55;11.57;;;4.87;;
20124;SDS011;10223;50.862;4.360;2022-11-04T12:21:30;18.67;;;6.63;;
20124;SDS011;10223;50.862;4.360;2022-11-04T12:24:01;17.33;;;6.93;;
20124;SDS011;10223;50.862;4.360;2022-11-04T12:26:43;16.43;;;5.73;;
20124;SDS011;10223;50.862;4.360;2022-11-04T12:29:26;14.07;;;6.40;;
20124;SDS011;10223;50.862;4.360;2022-11-04T12:32:06;9.93;;;5.20;;
20124;SDS011;10223;50.862;4.360;2022-11-04T12:34:46;16.17;;;5.77;;
20124;SDS011;10223;50.862;4.360;2022-11-04T12:37:24;10.30;;;5.93;;
20124;SDS011;10223;50.862;4.360;2022-11-04T12:40:02;10.67;;;5.20;;
20124;SDS011;10223;50.862;4.360;2022-11-04T12:42:44;11.37;;;5.03;;
20124;SDS011;10223;50.862;4.360;2022-11-04T12:45:22;11.57;;;5.10;;
20124;SDS011;10223;50.862;4.360;2022-11-04T12:48:00;14.37;;;5.10;;
20124;SDS011;10223;50.862;4.360;2022-11-04T12:50:42;14.53;;;5.70;;
20124;SDS011;10223;50.862;4.360;2022-11-04T12:53:33;11.77;;;4.87;;
20124;SDS011;10223;50.862;4.360;2022-11-04T12:56:26;9.57;;;4.50;;
20124;SDS011;10223;50.862;4.360;2022-11-04T13:01:55;10.17;;;4.03;;
20124;SDS011;10223;50.862;4.360;2022-11-04T13:04:30;9.70;;;4.50;;
20124;SDS011;10223;50.862;4.360;2022-11-04T13:07:02;12.50;;;4.43;;
20124;SDS011;10223;50.862;4.360;2022-11-04T13:09:35;17.03;;;4.73;;
20124;SDS011;10223;50.862;4.360;2022-11-04T13:12:07;13.83;;;5.70;;
20124;SDS011;10223;50.862;4.360;2022-11-04T13:14:40;11.93;;;4.90;;
20124;SDS011;10223;50.862;4.360;2022-11-04T13:17:11;15.53;;;5.30;;
20124;SDS011;10223;50.862;4.360;2022-11-04T13:19:44;14.37;;;5.73;;
20124;SDS011;10223;50.862;4.360;2022-11-04T13:22:14;13.03;;;6.07;;
20124;SDS011;10223;50.862;4.360;2022-11-04T13:24:46;14.27;;;6.10;;
20124;SDS011;10223;50.862;4.360;2022-11-04T13:27:17;15.67;;;6.43;;
20124;SDS011;10223;50.862;4.360;2022-11-04T13:29:46;22.50;;;7.43;;
20124;SDS011;10223;50.862;4.360;2022-11-04T13:32:16;17.73;;;7.00;;
20124;SDS011;10223;50.862;4.360;2022-11-04T13:34:53;12.00;;;7.20;;
20124;SDS011;10223;50.862;4.360;2022-11-04T13:37:27;13.37;;;7.17;;
20124;SDS011;10223;50.862;4.360;2022-11-04T13:39:58;16.83;;;7.47;;
20124;SDS011;10223;50.862;4.360;2022-11-04T13:45:46;13.40;;;7.07;;
20124;SDS011;10223;50.862;4.360;2022-11-04T13:48:15;14.77;;;7.57;;
20124;SDS011;10223;50.862;4.360;2022-11-04T13:50:51;17.70;;;7.77;;
20124;SDS011;10223;50.862;4.360;2022-11-04T13:53:38;14.33;;;7.20;;
20124;SDS011;10223;50.862;4.360;2022-11-04T13:56:07;16.40;;;6.43;;
20124;SDS011;10223;50.862;4.360;2022-11-04T13:58:35;14.67;;;6.03;;
20124;SDS011;10223;50.862;4.360;2022-11-04T14:01:11;13.00;;;5.53;;
20124;SDS011;10223;50.862;4.360;2022-11-04T14:03:51;10.20;;;4.23;;
20124;SDS011;10223;50.862;4.360;2022-11-04T14:06:47;10.00;;;3.87;;
20124;SDS011;10223;50.862;4.360;2022-11-04T14:12:26;6.23;;;3.07;;
20124;SDS011;10223;50.862;4.360;2022-11-04T14:15:01;8.77;;;3.40;;
20124;SDS011;10223;50.862;4.360;2022-11-04T14:20:28;8.27;;;3.53;;
20124;SDS011;10223;50.862;4.360;2022-11-04T14:23:04;7.73;;;3.20;;
20124;SDS011;10223;50.862;4.360;2022-11-04T14:25:34;9.13;;;3.17;;
20124;SDS011;10223;50.862;4.360;2022-11-04T14:28:15;3.73;;;1.30;;
20124;SDS011;10223;50.862;4.360;2022-11-04T14:30:45;4.07;;;1.13;;
20124;SDS011;10223;50.862;4.360;2022-11-04T14:33:30;2.63;;;0.70;;
20124;SDS011;10223;50.862;4.360;2022-11-04T14:36:13;2.07;;;0.70;;
20124;SDS011;10223;50.862;4.360;2022-11-04T14:39:00;2.10;;;0.70;;
20124;SDS011;10223;50.862;4.360;2022-11-04T14:41:47;1.73;;;0.70;;
20124;SDS011;10223;50.862;4.360;2022-11-04T14:44:29;0.83;;;0.43;;
20124;SDS011;10223;50.862;4.360;2022-11-04T14:46:58;1.73;;;0.80;;
20124;SDS011;10223;50.862;4.360;2022-11-04T14:49:43;1.90;;;0.73;;
20124;SDS011;10223;50.862;4.360;2022-11-04T14:52:16;7.70;;;1.23;;
20124;SDS011;10223;50.862;4.360;2022-11-04T14:54:49;3.67;;;0.80;;
20124;SDS011;10223;50.862;4.360;2022-11-04T14:57:22;4.17;;;1.03;;
20124;SDS011;10223;50.862;4.360;2022-11-04T14:59:49;15.97;;;9.43;;
20124;SDS011;10223;50.862;4.360;2022-11-04T15:02:18;6.27;;;4.40;;
20124;SDS011;10223;50.862;4.360;2022-11-04T15:04:51;5.00;;;3.20;;
20124;SDS011;10223;50.862;4.360;2022-11-04T15:07:22;2.47;;;1.00;;
20124;SDS011;10223;50.862;4.360;2022-11-04T15:09:53;4.50;;;2.83;;
20124;SDS011;10223;50.862;4.360;2022-11-04T15:12:23;2.03;;;1.00;;
20124;SDS011;10223;50.862;4.360;2022-11-04T15:15:25;4.47;;;1.30;;
20124;SDS011;10223;50.862;4.360;2022-11-04T15:18:00;2.83;;;1.00;;
20124;SDS011;10223;50.862;4.360;2022-11-04T15:20:30;2.00;;;0.70;;
20124;SDS011;10223;50.862;4.360;2022-11-04T15:23:01;2.43;;;0.70;;
20124;SDS011;10223;50.862;4.360;2022-11-04T15:25:32;2.27;;;0.90;;
20124;SDS011;10223;50.862;4.360;2022-11-04T15:28:00;3.77;;;0.90;;